Latest Coastal Weather Observations for Lucinda

IDQ60701

Issued at 2:12 pm EST Tuesday 26 May 2020 (issued every 10 minutes, with the page automatically refreshed every 10 minutes)

About coastal observations | Map of coastal stations | Coastal observations for QLD | Marine services | Other Formats
Station Details ID: 032141 Name: LUCINDA POINT Lat: -18.52 Lon: 146.39 Height: 10.0 m
Data from the previous 72 hours. | See also: Recent months at Lucinda
Date/Time
EST
Wind Sea
Height
m
Swell Vis
km
Cloud Weather Temp
°C
Press
hPa
Rain since
9am
mm
Dir  Spd
kts
Gust
kts
Height
m
Period
s
Dir
26/02:00pm SSE 4 6 - - - - - - - 21.0 1017.9 -
26/01:30pm S 6 8 - - - - - - - 20.6 1018.2 -
26/01:00pm S 7 9 - - - - - - - 20.3 1018.6 -
26/12:30pm S 9 11 - - - - - - - 20.2 1019.0 -
26/12:00pm S 9 11 - - - - - - - 20.1 1019.4 -
26/11:30am S 9 13 - - - - - - - 19.9 1019.9 -
26/11:00am SSW 9 11 - - - - - - - 19.4 1020.2 -
26/10:30am SSW 8 10 - - - - - - - 19.5 1020.3 -
26/10:00am SW 9 10 - - - - - - - 18.9 1020.3 -
26/09:30am SW 9 11 - - - - - - - 18.3 1020.3 -
26/09:00am WSW 9 11 - - - - - - - 17.9 1020.2 -
26/08:30am WSW 10 11 - - - - - - - 17.4 1019.9 -
26/08:00am WSW 9 10 - - - - - - - 15.5 1019.6 -
26/07:30am WSW 8 10 - - - - - - - 15.1 1019.5 -
26/07:00am WSW 10 11 - - - - - - - 15.3 1019.1 -
26/06:30am SW 10 12 - - - - - - - 14.8 1018.9 -
26/06:00am WSW 10 12 - - - - - - - 15.5 1018.5 -
26/05:30am WSW 12 14 - - - - - - - 15.2 1018.3 -
26/05:00am WSW 12 13 - - - - - - - 15.4 1018.1 -
26/04:30am WSW 11 12 - - - - - - - 15.7 1017.8 -
26/04:00am SW 11 11 - - - - - - - 15.5 1017.8 -
26/03:30am SW 11 13 - - - - - - - 16.1 1017.7 -
26/03:00am WSW 11 12 - - - - - - - 16.0 1017.7 -
26/02:30am WSW 10 12 - - - - - - - 16.6 1018.1 -
26/02:00am WSW 12 13 - - - - - - - 16.8 1018.3 -
26/01:30am SW 13 14 - - - - - - - 17.2 1018.3 -
26/01:00am WSW 11 12 - - - - - - - 17.5 1018.4 -
26/12:30am WSW 11 12 - - - - - - - 17.0 1018.4 -
26/12:00am WSW 11 12 - - - - - - - 17.2 1018.6 -
 
Date/Time
EST
Wind Sea
Height
m
Swell Vis
km
Cloud Weather Temp
°C
Press
hPa
Rain since
9am
mm
Dir  Spd
kts
Gust
kts
Height
m
Period
s
Dir
25/11:30pm SW 11 13 - - - - - - - 16.6 1018.9 -
25/11:00pm SW 9 11 - - - - - - - 16.9 1019.0 -
25/10:30pm SW 9 10 - - - - - - - 17.7 1018.9 -
25/10:00pm W 5 7 - - - - - - - 18.7 1018.9 -
25/09:30pm W 6 7 - - - - - - - 18.8 1018.9 -
25/09:00pm W 5 7 - - - - - - - 19.1 1018.9 -
25/08:30pm WNW 4 5 - - - - - - - 19.5 1018.7 -
25/08:00pm NE 2 4 - - - - - - - 19.8 1018.3 -
25/07:30pm ENE 5 7 - - - - - - - 20.1 1017.9 -
25/07:00pm NE 6 8 - - - - - - - 20.0 1017.6 -
25/06:30pm NE 6 8 - - - - - - - 20.0 1017.2 -
25/06:00pm NE 7 9 - - - - - - - 19.9 1016.8 -
25/05:30pm ENE 7 9 - - - - - - - 19.9 1016.5 -
25/05:00pm E 7 10 - - - - - - - 20.2 1016.3 -
25/04:30pm ENE 6 8 - - - - - - - 20.5 1016.1 -
25/04:00pm E 6 9 - - - - - - - 20.3 1016.0 -
25/03:30pm ESE 6 9 - - - - - - - 20.4 1016.0 -
25/03:00pm E 6 9 - - - - - - - 20.1 1016.0 -
25/02:30pm ESE 6 8 - - - - - - - 20.7 1016.4 -
25/02:00pm SE 5 8 - - - - - - - 20.3 1016.7 -
25/01:30pm S 4 7 - - - - - - - 19.9 1017.1 -
25/01:00pm S 8 11 - - - - - - - 19.5 1017.8 -
25/12:30pm S 8 11 - - - - - - - 19.4 1018.3 -
25/12:00pm S 8 11 - - - - - - - 19.2 1018.7 -
25/11:30am S 6 8 - - - - - - - 19.2 1018.8 -
25/11:00am SSW 5 8 - - - - - - - 18.8 1019.0 -
25/10:30am SW 6 8 - - - - - - - 18.5 1019.6 -
25/10:00am WSW 8 10 - - - - - - - 18.2 1019.6 -
25/09:30am WSW 8 11 - - - - - - - 17.9 1019.5 -
25/09:00am WSW 11 13 - - - - - - - 17.5 1019.3 -
25/08:30am WSW 12 13 - - - - - - - 17.0 1018.9 -
25/08:00am WSW 11 13 - - - - - - - 17.0 1018.6 -
25/07:30am W 10 11 - - - - - - - 16.4 1018.6 -
25/07:00am WSW 12 13 - - - - - - - 15.6 1018.6 -
25/06:30am WSW 12 15 - - - - - - - 15.5 1018.2 -
25/06:00am WSW 11 13 - - - - - - - 16.5 1017.7 -
25/05:30am WSW 12 15 - - - - - - - 16.3 1017.3 -
25/05:00am WSW 12 15 - - - - - - - 16.7 1017.2 -
25/04:30am WSW 13 15 - - - - - - - 16.4 1017.0 -
25/04:00am WSW 13 15 - - - - - - - 16.6 1016.9 -
25/03:30am WSW 14 15 - - - - - - - 16.4 1017.1 -
25/03:00am WSW 13 15 - - - - - - - 16.1 1017.1 -
25/02:30am SW 13 15 - - - - - - - 16.1 1017.2 -
25/02:00am WSW 10 12 - - - - - - - 16.7 1017.2 -
25/01:30am WSW 10 11 - - - - - - - 16.6 1017.1 -
25/01:00am WSW 12 14 - - - - - - - 17.1 1017.0 -
25/12:30am WSW 10 12 - - - - - - - 16.6 1016.8 -
25/12:00am WSW 10 11 - - - - - - - 17.5 1017.1 -
 
Date/Time
EST
Wind Sea
Height
m
Swell Vis
km
Cloud Weather Temp
°C
Press
hPa
Rain since
9am
mm
Dir  Spd
kts
Gust
kts
Height
m
Period
s
Dir
24/11:30pm SW 10 11 - - - - - - - 18.1 1017.2 -
24/11:00pm SW 9 10 - - - - - - - 18.5 1017.4 -
24/10:30pm WSW 7 8 - - - - - - - 18.5 1017.6 -
24/10:00pm WSW 7 8 - - - - - - - 18.2 1017.6 -
24/09:30pm WSW 9 11 - - - - - - - 18.4 1017.6 -
24/09:00pm WSW 11 13 - - - - - - - 18.7 1017.5 -
24/08:30pm WSW 13 15 - - - - - - - 18.5 1017.3 -
24/08:00pm WSW 10 11 - - - - - - - 19.0 1017.0 -
24/07:30pm WSW 9 12 - - - - - - - 19.4 1016.8 -
24/07:00pm WSW 11 12 - - - - - - - 19.8 1016.3 -
24/06:30pm WSW 11 13 - - - - - - - 20.1 1015.7 -
24/06:00pm SW 9 11 - - - - - - - 20.8 1015.5 -
24/05:30pm SSW 9 11 - - - - - - - 20.8 1015.1 -
24/05:00pm SSW 8 11 - - - - - - - 21.0 1014.9 -
24/04:30pm S 9 11 - - - - - - - 20.9 1014.6 -
24/04:00pm S 12 15 - - - - - - - 20.5 1014.5 -
24/03:30pm S 12 14 - - - - - - - 19.9 1014.2 -
24/03:00pm S 13 15 - - - - - - - 19.6 1014.0 -
24/02:30pm S 11 13 - - - - - - - 19.5 1014.3 -
24/02:00pm S 10 14 - - - - - - - 19.2 1014.4 -
24/01:30pm S 12 15 - - - - - - - 18.8 1015.0 -
24/01:00pm S 12 15 - - - - - - - 18.6 1015.5 -
24/12:30pm S 11 14 - - - - - - - 18.2 1016.0 -
24/12:00pm SSW 11 15 - - - - - - - 17.9 1016.7 -
24/11:30am SSW 13 16 - - - - - - - 17.6 1017.2 -
24/11:00am SW 11 16 - - - - - - - 17.1 1017.7 -
24/10:30am SW 13 18 - - - - - - - 16.7 1018.0 -
24/10:00am SW 12 16 - - - - - - - 16.4 1018.4 -
24/09:30am WSW 15 17 - - - - - - - 16.1 1018.4 -
24/09:00am WSW 16 19 - - - - - - - 15.8 1018.5 -
24/08:30am WSW 20 23 - - - - - - - 15.3 1018.1 -
24/08:00am WSW 18 21 - - - - - - - 15.3 1017.3 -
24/07:30am WSW 17 19 - - - - - - - 15.1 1017.3 -
24/07:00am WSW 16 19 - - - - - - - 15.3 1017.2 -
24/06:30am WSW 16 19 - - - - - - - 15.0 1016.7 -
24/06:00am WSW 17 21 - - - - - - - 15.5 1016.4 -
24/05:30am WSW 19 21 - - - - - - - 15.3 1016.0 -
24/05:00am WSW 19 22 - - - - - - - 15.3 1015.5 -
24/04:30am WSW 18 20 - - - - - - - 15.2 1015.2 -
24/04:00am WSW 17 21 - - - - - - - 14.8 1014.7 -
24/03:30am WSW 18 21 - - - - - - - 14.7 1014.8 -
24/03:00am WSW 21 23 - - - - - - - 14.5 1015.3 -
24/02:30am WSW 20 23 - - - - - - - 14.4 1015.5 -
24/02:00am SW 19 22 - - - - - - - 14.1 1015.7 -
24/01:30am WSW 18 21 - - - - - - - 14.5 1016.1 -
24/01:00am WSW 18 21 - - - - - - - 14.6 1016.2 -
24/12:30am WSW 20 24 - - - - - - - 14.3 1016.8 -
24/12:00am WSW 18 21 - - - - - - - 14.4 1016.1 -
 
Date/Time
EST
Wind Sea
Height
m
Swell Vis
km
Cloud Weather Temp
°C
Press
hPa
Rain since
9am
mm
Dir  Spd
kts
Gust
kts
Height
m
Period
s
Dir
23/11:30pm WSW 22 25 - - - - - - - 14.7 1016.9 -
23/11:00pm SW 23 26 - - - - - - - 14.9 1016.7 -
23/10:30pm SW 20 23 - - - - - - - 15.3 1016.2 -
23/10:00pm SW 18 22 - - - - - - - 15.6 1016.9 -
23/09:30pm WSW 16 21 - - - - - - - 15.5 1016.9 -
23/09:00pm WSW 20 27 - - - - - - - 15.1 1017.2 -
23/08:30pm WSW 18 23 - - - - - - - 15.3 1016.4 -
23/08:00pm SW 17 21 - - - - - - - 15.1 1016.0 -
23/07:30pm SW 18 21 - - - - - - - 15.2 1015.6 -
23/07:00pm SW 9 12 - - - - - - - 15.2 1014.6 -
23/06:30pm SW 18 22 - - - - - - - 15.1 1015.1 -
23/06:00pm WSW 17 22 - - - - - - - 14.8 1015.0 -
23/05:30pm SW 19 22 - - - - - - - 15.1 1014.3 -
23/05:00pm SW 13 15 - - - - - - - 15.1 1013.5 -
23/04:30pm WSW 15 17 - - - - - - - 14.9 1014.3 -
23/04:00pm WSW 13 16 - - - - - - - 14.9 1014.2 -
23/03:30pm WSW 12 13 - - - - - - - 14.8 1013.6 -
23/03:00pm WSW 11 14 - - - - - - - 14.9 1014.1 -
23/02:30pm WSW 12 14 - - - - - - - 14.8 1014.4 -

Other formats

Comma delimited format used in spreadsheet applications
http://www.bom.gov.au/fwo/IDQ60701/IDQ60701.94295.axf

JavaScript Object Notation format (JSON) in row-major order
http://www.bom.gov.au/fwo/IDQ60701/IDQ60701.94295.json

Data quality

Most of these data are generated automatically and are frequently updated. Quality checks on data are not normally performed. It is possible for incorrect values to appear. Refer to information at About Latest Weather Observations and please check the disclaimer before using these data.